| time (UTC) | temp F | wind direction | speed MPH | gust MPH | rain 1hr in | rain 24hr in | rain mn in | humidity % | barometer mb |
| 20260510084823 | 55 | 355 | 2.0 | 6.0 | 0.00 | 0.22 | 0.14 | 76 | 1010.7 |
| 20260510084323 | 54 | 355 | 2.0 | 4.0 | 0.00 | 0.22 | 0.14 | 80 | 1010.2 |
| 20260510083824 | 54 | 11 | 2.0 | 4.0 | 0.00 | 0.22 | 0.14 | 81 | 1010.1 |
| 20260510083323 | 54 | 348 | 2.0 | 4.0 | 0.00 | 0.22 | 0.14 | 80 | 1010.1 |
| 20260510082823 | 54 | 340 | 2.0 | 4.0 | 0.00 | 0.22 | 0.14 | 82 | 1010.0 |
| 20260510081823 | 54 | 345 | 0.0 | 6.0 | 0.00 | 0.22 | 0.14 | 80 | 1010.0 |
| 20260510081323 | 54 | 360 | 3.0 | 5.0 | 0.00 | 0.22 | 0.14 | 82 | 1009.9 |
| 20260510080822 | 54 | 5 | 0.0 | 4.0 | 0.00 | 0.23 | 0.14 | 81 | 1009.6 |
| 20260510080322 | 55 | 350 | 1.0 | 4.0 | 0.00 | 0.23 | 0.14 | 80 | 1010.0 |
| 20260510075822 | 55 | 310 | 2.0 | 6.0 | 0.00 | 0.23 | 0.14 | 77 | 1010.0 |
| 20260510075322 | 55 | 347 | 2.0 | 6.0 | 0.00 | 0.24 | 0.14 | 78 | 1009.4 |
| 20260510074822 | 55 | 55 | 1.0 | 6.0 | 0.00 | 0.24 | 0.14 | 78 | 1009.4 |
| 20260510074322 | 55 | 29 | 2.0 | 5.0 | 0.00 | 0.24 | 0.14 | 80 | 1009.4 |
| 20260510073821 | 55 | 41 | 3.0 | 6.0 | 0.00 | 0.25 | 0.14 | 80 | 1009.3 |
| 20260510073321 | 56 | 5 | 1.0 | 6.0 | 0.00 | 0.25 | 0.14 | 79 | 1009.3 |
| 20260510072821 | 56 | 20 | 2.0 | 5.0 | 0.00 | 0.25 | 0.14 | 80 | 1009.1 |
| 20260510072321 | 56 | 22 | 2.0 | 9.0 | 0.00 | 0.25 | 0.14 | 81 | 1009.2 |
| 20260510071321 | 56 | 343 | 9.0 | 9.0 | 0.00 | 0.25 | 0.14 | 82 | 1009.4 |
| 20260510070821 | 56 | 17 | 3.0 | 5.0 | 0.00 | 0.25 | 0.14 | 83 | 1009.2 |
| 20260510070321 | 56 | 355 | 0.0 | 5.0 | 0.00 | 0.25 | 0.14 | 84 | 1009.0 |
| 20260510064820 | 56 | 355 | 2.0 | 9.0 | 0.00 | 0.25 | 0.14 | 89 | 1009.1 |
| 20260510064320 | 56 | 351 | 6.0 | 8.0 | 0.00 | 0.25 | 0.14 | 92 | 1009.0 |
| 20260510063820 | 55 | 340 | 3.0 | 4.0 | 0.00 | 0.25 | 0.14 | 93 | 1009.0 |
| 20260510062819 | 55 | 277 | 0.0 | 2.0 | 0.00 | 0.25 | 0.14 | 93 | 1009.2 |
| 20260510062319 | 55 | 268 | 0.0 | 2.0 | 0.00 | 0.25 | 0.14 | 93 | 1009.2 |
| 20260510061819 | 55 | 252 | 0.0 | 3.0 | 0.00 | 0.25 | 0.14 | 93 | 1009.0 |
| 20260510061318 | 55 | 310 | 0.0 | 3.0 | 0.00 | 0.25 | 0.14 | 94 | 1009.1 |
| 20260510060819 | 54 | 360 | 1.0 | 1.0 | 0.00 | 0.25 | 0.14 | 93 | 1008.9 |
| 20260510060319 | 54 | 225 | 0.0 | 0.0 | 0.00 | 0.26 | 0.14 | 93 | 1008.8 |
| 20260510055818 | 54 | 225 | 0.0 | 0.0 | 0.00 | 0.26 | 0.14 | 93 | 1008.7 |
| 20260510055318 | 54 | 225 | 0.0 | 0.0 | 0.00 | 0.26 | 0.14 | 92 | 1008.8 |
| 20260510053818 | 55 | 225 | 0.0 | 0.0 | 0.02 | 0.29 | 0.14 | 92 | 1008.7 |
| 20260510052817 | 55 | 225 | 0.0 | 0.0 | 0.05 | 0.30 | 0.14 | 91 | 1008.6 |
| 20260510052317 | 56 | 225 | 0.0 | 0.0 | 0.06 | 0.31 | 0.14 | 91 | 1008.4 |
| 20260510051818 | 56 | 225 | 0.0 | 0.0 | 0.08 | 0.33 | 0.14 | 90 | 1008.3 |
| 20260510051317 | 57 | 225 | 0.0 | 0.0 | 0.11 | 0.34 | 0.14 | 90 | 1008.3 |
| 20260510050816 | 57 | 225 | 0.0 | 3.0 | 0.12 | 0.34 | 0.14 | 89 | 1008.3 |
| 20260510050317 | 58 | 225 | 0.0 | 3.0 | 0.14 | 0.35 | 0.14 | 89 | 1008.4 |
| 20260510045817 | 58 | 260 | 0.0 | 1.0 | 0.18 | 0.35 | 0.14 | 89 | 1008.3 |
| 20260510044816 | 59 | 264 | 0.0 | 10.0 | 0.21 | 0.36 | 0.14 | 85 | 1008.4 |
| 20260510044316 | 59 | 195 | 5.0 | 10.0 | 0.21 | 0.37 | 0.14 | 83 | 1008.5 |
| 20260510043816 | 59 | 204 | 2.0 | 10.0 | 0.19 | 0.36 | 0.12 | 85 | 1008.8 |
| 20260510043315 | 58 | 273 | 2.0 | 12.0 | 0.18 | 0.35 | 0.11 | 85 | 1008.8 |
| 20260510041815 | 60 | 269 | 10.0 | 19.0 | 0.13 | 0.34 | 0.06 | 81 | 1009.3 |
| 20260510041315 | 60 | 315 | 6.0 | 14.0 | 0.10 | 0.32 | 0.03 | 83 | 1009.2 |
| 20260510040815 | 60 | 295 | 4.0 | 15.0 | 0.09 | 0.31 | 0.02 | 81 | 1009.0 |
| 20260510040315 | 61 | 238 | 4.0 | 15.0 | 0.07 | 0.30 | 0.00 | 83 | 1009.2 |
| 20260510035314 | 61 | 329 | 2.0 | 5.0 | 0.01 | 0.25 | 0.24 | 83 | 1008.4 |
| 20260510034814 | 61 | 188 | 1.0 | 4.0 | 0.00 | 0.25 | 0.23 | 83 | 1008.4 |
| 20260510034314 | 62 | 258 | 0.0 | 4.0 | 0.00 | 0.25 | 0.23 | 80 | 1008.2 |
| 20260510033814 | 64 | 259 | 1.0 | 9.0 | 0.00 | 0.25 | 0.23 | 74 | 1008.1 |
| 20260510033314 | 65 | 208 | 3.0 | 9.0 | 0.00 | 0.25 | 0.23 | 70 | 1007.7 |
| 20260510032814 | 65 | 139 | 1.0 | 6.0 | 0.00 | 0.25 | 0.23 | 69 | 1007.6 |
| 20260510032314 | 65 | 193 | 0.0 | 10.0 | 0.00 | 0.25 | 0.23 | 69 | 1007.5 |
| 20260510031814 | 65 | 180 | 6.0 | 11.0 | 0.00 | 0.25 | 0.23 | 69 | 1007.5 |
| 20260510030813 | 65 | 229 | 3.0 | 9.0 | 0.00 | 0.26 | 0.23 | 70 | 1007.6 |
| 20260510030313 | 64 | 199 | 1.0 | 7.0 | 0.00 | 0.27 | 0.23 | 69 | 1007.6 |
| 20260510025813 | 64 | 227 | 2.0 | 9.0 | 0.00 | 0.28 | 0.23 | 69 | 1007.4 |
| 20260510024813 | 64 | 230 | 6.0 | 7.0 | 0.00 | 0.30 | 0.23 | 69 | 1007.5 |
| 20260510024312 | 64 | 199 | 2.0 | 10.0 | 0.00 | 0.31 | 0.23 | 68 | 1007.5 |
| 20260510023812 | 65 | 201 | 1.0 | 10.0 | 0.00 | 0.32 | 0.23 | 68 | 1007.7 |
| 20260510023312 | 65 | 178 | 2.0 | 9.0 | 0.00 | 0.32 | 0.23 | 68 | 1007.6 |
| 20260510022812 | 65 | 210 | 7.0 | 9.0 | 0.00 | 0.32 | 0.23 | 67 | 1007.5 |
| 20260510022312 | 65 | 199 | 2.0 | 7.0 | 0.00 | 0.33 | 0.23 | 67 | 1007.5 |
| 20260510021811 | 65 | 226 | 5.0 | 7.0 | 0.00 | 0.33 | 0.23 | 67 | 1007.4 |
| 20260510021311 | 65 | 217 | 5.0 | 7.0 | 0.00 | 0.33 | 0.23 | 67 | 1007.4 |
| 20260510015811 | 65 | 202 | 1.0 | 5.0 | 0.00 | 0.34 | 0.23 | 67 | 1007.0 |
| 20260510015311 | 65 | 215 | 1.0 | 5.0 | 0.00 | 0.34 | 0.23 | 67 | 1006.9 |
| 20260510014810 | 64 | 222 | 2.0 | 5.0 | 0.00 | 0.34 | 0.23 | 68 | 1006.8 |
| 20260510014312 | 63 | 209 | 3.0 | 5.0 | 0.00 | 0.34 | 0.23 | 70 | 1006.6 |
| 20260510013810 | 61 | 219 | 2.0 | 3.0 | 0.00 | 0.34 | 0.23 | 74 | 1006.5 |
| 20260510013310 | 60 | 207 | 0.0 | 0.0 | 0.00 | 0.34 | 0.23 | 77 | 1006.5 |
| 20260510012810 | 61 | 207 | 0.0 | 0.0 | 0.00 | 0.34 | 0.23 | 75 | 1006.4 |
| 20260510012310 | 63 | 207 | 0.0 | 0.0 | 0.00 | 0.34 | 0.23 | 70 | 1006.4 |
| 20260510011810 | 65 | 207 | 0.0 | 3.0 | 0.00 | 0.34 | 0.23 | 67 | 1006.3 |
| 20260510010809 | 66 | 340 | 1.0 | 7.0 | 0.00 | 0.35 | 0.23 | 62 | 1006.3 |
| 20260510010309 | 66 | 178 | 2.0 | 7.0 | 0.00 | 0.35 | 0.23 | 62 | 1006.2 |
| 20260510005309 | 67 | 157 | 1.0 | 7.0 | 0.00 | 0.35 | 0.23 | 60 | 1005.9 |
| 20260510004809 | 68 | 200 | 2.0 | 7.0 | 0.00 | 0.35 | 0.23 | 59 | 1005.9 |
| 20260510004309 | 68 | 215 | 2.0 | 9.0 | 0.00 | 0.35 | 0.23 | 58 | 1005.9 |
| 20260510003809 | 68 | 236 | 2.0 | 9.0 | 0.00 | 0.35 | 0.23 | 59 | 1005.8 |
| 20260510003309 | 68 | 294 | 1.0 | 8.0 | 0.00 | 0.36 | 0.23 | 58 | 1005.6 |
| 20260510002308 | 69 | 201 | 2.0 | 7.0 | 0.00 | 0.36 | 0.23 | 61 | 1005.8 |
| 20260510001308 | 69 | 237 | 2.0 | 9.0 | 0.00 | 0.36 | 0.23 | 64 | 1005.6 |
| 20260510000808 | 69 | 192 | 3.0 | 10.0 | 0.00 | 0.36 | 0.23 | 63 | 1005.6 |
| 20260510000307 | 70 | 202 | 4.0 | 10.0 | 0.00 | 0.37 | 0.23 | 63 | 1005.6 |
| 20260509235807 | 70 | 205 | 2.0 | 12.0 | 0.00 | 0.37 | 0.23 | 63 | 1005.6 |
| 20260509235307 | 70 | 244 | 4.0 | 12.0 | 0.00 | 0.37 | 0.23 | 62 | 1005.4 |
| 20260509234807 | 70 | 223 | 4.0 | 13.0 | 0.00 | 0.37 | 0.23 | 62 | 1005.4 |
| 20260509234307 | 70 | 186 | 4.0 | 13.0 | 0.00 | 0.38 | 0.23 | 61 | 1005.3 |
| 20260509233807 | 70 | 232 | 2.0 | 12.0 | 0.00 | 0.38 | 0.23 | 61 | 1005.3 |
| 20260509233306 | 70 | 221 | 2.0 | 12.0 | 0.00 | 0.38 | 0.23 | 61 | 1005.2 |
| 20260509232807 | 71 | 232 | 10.0 | 13.0 | 0.00 | 0.38 | 0.23 | 60 | 1005.2 |
| 20260509231806 | 71 | 185 | 3.0 | 15.0 | 0.00 | 0.38 | 0.23 | 59 | 1005.1 |
| 20260509231306 | 71 | 227 | 5.0 | 13.0 | 0.00 | 0.38 | 0.23 | 58 | 1005.2 |
| 20260509230806 | 71 | 275 | 8.0 | 12.0 | 0.00 | 0.38 | 0.23 | 58 | 1005.2 |
| 20260509225806 | 71 | 225 | 4.0 | 15.0 | 0.00 | 0.38 | 0.23 | 57 | 1005.0 |
| 20260509225306 | 72 | 152 | 12.0 | 15.0 | 0.00 | 0.38 | 0.23 | 55 | 1005.0 |
| 20260509224305 | 73 | 223 | 7.0 | 16.0 | 0.00 | 0.38 | 0.23 | 55 | 1005.1 |
| 20260509223805 | 72 | 186 | 6.0 | 16.0 | 0.00 | 0.38 | 0.23 | 54 | 1005.0 |
| 20260509223305 | 72 | 226 | 4.0 | 14.0 | 0.00 | 0.38 | 0.23 | 55 | 1004.9 |
| 20260509222805 | 72 | 236 | 7.0 | 14.0 | 0.00 | 0.38 | 0.23 | 53 | 1005.0 |
| 20260509222307 | 73 | 259 | 9.0 | 14.0 | 0.00 | 0.38 | 0.23 | 54 | 1005.0 |
| 20260509221804 | 73 | 205 | 4.0 | 14.0 | 0.00 | 0.38 | 0.23 | 55 | 1005.0 |
| 20260509221304 | 73 | 235 | 7.0 | 14.0 | 0.00 | 0.38 | 0.23 | 51 | 1004.9 |
| 20260509220804 | 73 | 190 | 3.0 | 13.0 | 0.00 | 0.38 | 0.23 | 51 | 1005.0 |
| 20260509220334 | 73 | 250 | 3.0 | 13.0 | 0.00 | 0.38 | 0.23 | 53 | 1005.0 |
| 20260509215306 | 73 | 202 | 6.0 | 16.0 | 0.00 | 0.38 | 0.23 | 52 | 1004.9 |
| 20260509214303 | 73 | 244 | 5.0 | 15.0 | 0.00 | 0.38 | 0.23 | 54 | 1004.8 |
| 20260509213833 | 73 | 208 | 10.0 | 15.0 | 0.00 | 0.38 | 0.23 | 54 | 1004.8 |
| 20260509213333 | 73 | 185 | 10.0 | 16.0 | 0.00 | 0.38 | 0.23 | 54 | 1004.8 |
| 20260509212833 | 73 | 211 | 5.0 | 19.0 | 0.00 | 0.38 | 0.23 | 56 | 1004.9 |
| 20260509212332 | 73 | 219 | 6.0 | 19.0 | 0.00 | 0.38 | 0.23 | 54 | 1004.8 |
| 20260509211832 | 73 | 236 | 10.0 | 19.0 | 0.00 | 0.38 | 0.23 | 56 | 1004.9 |
| 20260509211333 | 73 | 239 | 10.0 | 19.0 | 0.00 | 0.38 | 0.23 | 54 | 1004.8 |
| 20260509210832 | 73 | 247 | 7.0 | 21.0 | 0.00 | 0.38 | 0.23 | 58 | 1004.8 |
| 20260509210332 | 73 | 233 | 6.0 | 21.0 | 0.00 | 0.38 | 0.23 | 55 | 1004.9 |
| 20260509205831 | 72 | 189 | 13.0 | 17.0 | 0.00 | 0.38 | 0.23 | 57 | 1005.0 |
| 20260509205332 | 72 | 262 | 2.0 | 16.0 | 0.00 | 0.38 | 0.23 | 56 | 1005.0 |
| 20260509204832 | 73 | 200 | 5.0 | 16.0 | 0.00 | 0.38 | 0.23 | 59 | 1005.2 |
| 20260509203831 | 72 | 206 | 10.0 | 21.0 | 0.00 | 0.38 | 0.23 | 59 | 1005.1 |
| 20260509203331 | 72 | 205 | 7.0 | 21.0 | 0.00 | 0.38 | 0.23 | 59 | 1005.2 |
| 20260509202330 | 72 | 226 | 6.0 | 15.0 | 0.00 | 0.38 | 0.23 | 57 | 1005.3 |
| 20260509201830 | 72 | 221 | 4.0 | 15.0 | 0.00 | 0.38 | 0.23 | 60 | 1005.3 |
| 20260509201330 | 72 | 184 | 4.0 | 16.0 | 0.00 | 0.38 | 0.23 | 59 | 1005.3 |
| 20260509200830 | 72 | 207 | 6.0 | 18.0 | 0.00 | 0.38 | 0.23 | 59 | 1005.3 |
| 20260509200330 | 72 | 207 | 12.0 | 18.0 | 0.00 | 0.38 | 0.23 | 59 | 1005.4 |
| 20260509195830 | 72 | 223 | 14.0 | 18.0 | 0.00 | 0.38 | 0.23 | 61 | 1005.4 |
| 20260509195330 | 72 | 193 | 15.0 | 20.0 | 0.00 | 0.38 | 0.23 | 61 | 1005.5 |
| 20260509194830 | 72 | 216 | 10.0 | 20.0 | 0.00 | 0.38 | 0.23 | 61 | 1005.5 |
| 20260509194329 | 72 | 180 | 9.0 | 19.0 | 0.00 | 0.38 | 0.23 | 65 | 1005.5 |
| 20260509193830 | 71 | 215 | 7.0 | 19.0 | 0.00 | 0.38 | 0.23 | 62 | 1005.5 |
| 20260509193329 | 71 | 190 | 5.0 | 20.0 | 0.00 | 0.38 | 0.23 | 63 | 1005.7 |
| 20260509192829 | 71 | 209 | 14.0 | 20.0 | 0.00 | 0.38 | 0.23 | 65 | 1005.8 |
| 20260509192329 | 71 | 217 | 15.0 | 19.0 | 0.00 | 0.38 | 0.23 | 63 | 1005.7 |
| 20260509191829 | 71 | 178 | 11.0 | 19.0 | 0.00 | 0.38 | 0.23 | 61 | 1005.7 |
| 20260509191329 | 71 | 192 | 6.0 | 18.0 | 0.00 | 0.38 | 0.23 | 62 | 1005.8 |
| 20260509190828 | 71 | 202 | 7.0 | 17.0 | 0.00 | 0.38 | 0.23 | 65 | 1005.8 |
| 20260509190328 | 71 | 165 | 10.0 | 14.0 | 0.00 | 0.38 | 0.23 | 67 | 1005.9 |
| 20260509185829 | 71 | 238 | 8.0 | 14.0 | 0.00 | 0.38 | 0.23 | 65 | 1005.9 |
| 20260509185328 | 70 | 251 | 6.0 | 17.0 | 0.00 | 0.38 | 0.23 | 64 | 1005.8 |
| 20260509184827 | 70 | 215 | 10.0 | 19.0 | 0.00 | 0.38 | 0.23 | 65 | 1005.9 |
| 20260509184327 | 70 | 213 | 4.0 | 19.0 | 0.00 | 0.38 | 0.23 | 65 | 1005.9 |
| 20260509183827 | 70 | 141 | 4.0 | 18.0 | 0.00 | 0.38 | 0.23 | 66 | 1005.9 |
| 20260509183327 | 70 | 215 | 5.0 | 18.0 | 0.00 | 0.38 | 0.23 | 64 | 1005.9 |
| 20260509182827 | 69 | 193 | 4.0 | 18.0 | 0.00 | 0.38 | 0.23 | 66 | 1005.9 |
| 20260509182327 | 69 | 197 | 5.0 | 19.0 | 0.00 | 0.38 | 0.23 | 67 | 1005.9 |
| 20260509181827 | 69 | 186 | 10.0 | 19.0 | 0.00 | 0.38 | 0.23 | 67 | 1006.0 |
| 20260509181327 | 69 | 198 | 6.0 | 19.0 | 0.00 | 0.38 | 0.23 | 67 | 1006.0 |
| 20260509180826 | 69 | 187 | 11.0 | 19.0 | 0.00 | 0.38 | 0.23 | 68 | 1006.0 |
| 20260509175826 | 68 | 200 | 9.0 | 22.0 | 0.00 | 0.38 | 0.23 | 68 | 1006.0 |
| 20260509174826 | 68 | 175 | 4.0 | 18.0 | 0.00 | 0.38 | 0.23 | 67 | 1006.3 |
| 20260509174326 | 68 | 211 | 5.0 | 18.0 | 0.00 | 0.38 | 0.23 | 68 | 1006.1 |
| 20260509173326 | 68 | 255 | 4.0 | 15.0 | 0.00 | 0.38 | 0.23 | 68 | 1006.2 |
| 20260509172825 | 68 | 205 | 10.0 | 17.0 | 0.00 | 0.38 | 0.23 | 71 | 1006.3 |
| 20260509172325 | 68 | 232 | 4.0 | 17.0 | 0.00 | 0.38 | 0.23 | 69 | 1006.4 |
| 20260509171825 | 67 | 200 | 8.0 | 12.0 | 0.00 | 0.38 | 0.23 | 69 | 1006.4 |
| 20260509171325 | 67 | 237 | 6.0 | 12.0 | 0.00 | 0.38 | 0.23 | 70 | 1006.5 |
| 20260509170825 | 67 | 277 | 3.0 | 12.0 | 0.00 | 0.38 | 0.23 | 71 | 1006.5 |
| 20260509170324 | 67 | 162 | 7.0 | 16.0 | 0.00 | 0.38 | 0.23 | 71 | 1006.5 |
| 20260509165824 | 67 | 219 | 7.0 | 16.0 | 0.00 | 0.38 | 0.23 | 73 | 1006.6 |
| 20260509165324 | 66 | 205 | 9.0 | 16.0 | 0.00 | 0.38 | 0.23 | 73 | 1006.6 |
| 20260509164824 | 66 | 204 | 2.0 | 13.0 | 0.00 | 0.38 | 0.23 | 72 | 1006.6 |
| 20260509163824 | 65 | 193 | 6.0 | 15.0 | 0.00 | 0.38 | 0.23 | 73 | 1006.6 |
| 20260509163323 | 66 | 206 | 9.0 | 15.0 | 0.00 | 0.38 | 0.23 | 72 | 1006.4 |
| 20260509162824 | 65 | 188 | 3.0 | 18.0 | 0.00 | 0.38 | 0.23 | 71 | 1006.5 |
| 20260509161823 | 65 | 196 | 5.0 | 15.0 | 0.00 | 0.38 | 0.23 | 70 | 1006.4 |
| 20260509161323 | 65 | 214 | 14.0 | 14.0 | 0.00 | 0.38 | 0.23 | 71 | 1006.4 |
| 20260509160322 | 65 | 195 | 3.0 | 14.0 | 0.00 | 0.38 | 0.23 | 71 | 1006.4 |
| 20260509155823 | 65 | 242 | 2.0 | 14.0 | 0.00 | 0.38 | 0.23 | 73 | 1006.5 |
| 20260509155322 | 64 | 184 | 5.0 | 13.0 | 0.00 | 0.38 | 0.23 | 73 | 1006.7 |
| 20260509154822 | 64 | 188 | 5.0 | 18.0 | 0.00 | 0.38 | 0.23 | 73 | 1006.5 |
| 20260509153822 | 65 | 229 | 4.0 | 12.0 | 0.00 | 0.38 | 0.23 | 72 | 1006.6 |
| 20260509153322 | 64 | 180 | 3.0 | 12.0 | 0.00 | 0.38 | 0.23 | 72 | 1006.7 |
| 20260509152822 | 65 | 191 | 6.0 | 12.0 | 0.00 | 0.38 | 0.23 | 75 | 1006.6 |
| 20260509151821 | 63 | 186 | 4.0 | 14.0 | 0.00 | 0.38 | 0.23 | 73 | 1006.4 |
| 20260509151321 | 63 | 180 | 10.0 | 14.0 | 0.00 | 0.38 | 0.23 | 76 | 1006.4 |
| 20260509150821 | 63 | 204 | 7.0 | 13.0 | 0.00 | 0.38 | 0.23 | 76 | 1006.4 |
| 20260509145821 | 63 | 200 | 4.0 | 14.0 | 0.00 | 0.38 | 0.23 | 76 | 1006.4 |
| 20260509145320 | 63 | 232 | 12.0 | 14.0 | 0.00 | 0.38 | 0.23 | 78 | 1006.5 |
| 20260509144820 | 62 | 184 | 5.0 | 14.0 | 0.00 | 0.38 | 0.23 | 78 | 1006.3 |
| 20260509144320 | 62 | 206 | 7.0 | 14.0 | 0.00 | 0.38 | 0.23 | 77 | 1006.4 |
| 20260509143820 | 62 | 178 | 10.0 | 14.0 | 0.00 | 0.38 | 0.23 | 79 | 1006.4 |
| 20260509142820 | 61 | 192 | 3.0 | 12.0 | 0.00 | 0.38 | 0.23 | 79 | 1006.4 |
| 20260509141319 | 60 | 181 | 6.0 | 14.0 | 0.00 | 0.38 | 0.23 | 82 | 1006.0 |
| 20260509140819 | 60 | 217 | 7.0 | 12.0 | 0.00 | 0.38 | 0.23 | 82 | 1006.1 |
| 20260509140319 | 60 | 228 | 4.0 | 11.0 | 0.00 | 0.38 | 0.23 | 84 | 1006.1 |
| 20260509135319 | 60 | 212 | 5.0 | 10.0 | 0.00 | 0.38 | 0.23 | 82 | 1006.1 |
| 20260509134818 | 60 | 245 | 4.0 | 10.0 | 0.00 | 0.38 | 0.23 | 84 | 1006.0 |
| 20260509133818 | 60 | 167 | 4.0 | 9.0 | 0.00 | 0.38 | 0.23 | 83 | 1006.1 |
| 20260509133318 | 60 | 218 | 4.0 | 9.0 | 0.00 | 0.38 | 0.23 | 85 | 1006.2 |
| 20260509132818 | 59 | 184 | 5.0 | 9.0 | 0.00 | 0.38 | 0.23 | 85 | 1006.2 |
| 20260509132317 | 59 | 201 | 6.0 | 10.0 | 0.00 | 0.38 | 0.23 | 85 | 1006.2 |
| 20260509131818 | 59 | 193 | 4.0 | 10.0 | 0.00 | 0.38 | 0.23 | 86 | 1006.3 |
| 20260509131317 | 58 | 115 | 2.0 | 9.0 | 0.00 | 0.38 | 0.23 | 85 | 1006.2 |
| 20260509130817 | 58 | 200 | 4.0 | 10.0 | 0.00 | 0.38 | 0.23 | 87 | 1006.2 |
| 20260509130317 | 57 | 184 | 5.0 | 10.0 | 0.00 | 0.38 | 0.23 | 87 | 1006.2 |
| 20260509125817 | 57 | 177 | 2.0 | 9.0 | 0.00 | 0.38 | 0.23 | 88 | 1006.1 |
| 20260509125317 | 57 | 198 | 4.0 | 9.0 | 0.00 | 0.38 | 0.23 | 87 | 1006.2 |
| 20260509124817 | 57 | 250 | 2.0 | 9.0 | 0.00 | 0.38 | 0.23 | 88 | 1006.2 |
| 20260509124316 | 57 | 186 | 3.0 | 9.0 | 0.00 | 0.38 | 0.23 | 89 | 1006.2 |
| 20260509123816 | 56 | 205 | 9.0 | 9.0 | 0.00 | 0.38 | 0.23 | 90 | 1006.1 |
| 20260509122816 | 56 | 219 | 4.0 | 7.0 | 0.00 | 0.38 | 0.23 | 89 | 1006.1 |
| 20260509122316 | 56 | 283 | 2.0 | 7.0 | 0.00 | 0.38 | 0.23 | 90 | 1006.1 |
| 20260509121316 | 55 | 204 | 3.0 | 7.0 | 0.00 | 0.38 | 0.23 | 90 | 1006.0 |
| 20260509120816 | 55 | 234 | 3.0 | 10.0 | 0.00 | 0.38 | 0.23 | 91 | 1005.9 |
| 20260509120316 | 55 | 205 | 3.0 | 10.0 | 0.00 | 0.38 | 0.23 | 90 | 1005.8 |
| 20260509115816 | 55 | 232 | 5.0 | 7.0 | 0.00 | 0.38 | 0.23 | 91 | 1005.9 |
| 20260509115315 | 54 | 272 | 1.0 | 5.0 | 0.00 | 0.38 | 0.23 | 91 | 1006.0 |
| 20260509114815 | 54 | 211 | 0.0 | 2.0 | 0.00 | 0.38 | 0.23 | 91 | 1006.1 |
| 20260509113814 | 54 | 199 | 1.0 | 2.0 | 0.00 | 0.38 | 0.23 | 91 | 1006.1 |
| 20260509113314 | 54 | 14 | 0.0 | 4.0 | 0.00 | 0.38 | 0.23 | 91 | 1006.1 |
| 20260509112814 | 54 | 237 | 2.0 | 4.0 | 0.00 | 0.38 | 0.23 | 91 | 1006.1 |
| 20260509111814 | 54 | 300 | 1.0 | 10.0 | 0.01 | 0.38 | 0.23 | 91 | 1005.9 |
| 20260509111314 | 54 | 338 | 3.0 | 10.0 | 0.01 | 0.38 | 0.23 | 90 | 1005.8 |
| 20260509110813 | 54 | 252 | 8.0 | 8.0 | 0.01 | 0.38 | 0.23 | 90 | 1005.7 |
| 20260509105313 | 54 | 147 | 2.0 | 7.0 | 0.01 | 0.38 | 0.23 | 91 | 1005.6 |
| 20260509104813 | 54 | 215 | 0.0 | 10.0 | 0.01 | 0.38 | 0.23 | 91 | 1005.7 |
| 20260509104313 | 54 | 262 | 3.0 | 10.0 | 0.01 | 0.38 | 0.23 | 91 | 1005.5 |
| 20260509103313 | 54 | 216 | 8.0 | 15.0 | 0.01 | 0.38 | 0.23 | 91 | 1005.1 |
| 20260509102812 | 54 | 173 | 6.0 | 11.0 | 0.01 | 0.38 | 0.23 | 91 | 1005.2 |
| 20260509101812 | 54 | 200 | 10.0 | 13.0 | 0.00 | 0.37 | 0.22 | 91 | 1005.6 |
| 20260509100812 | 54 | 186 | 11.0 | 11.0 | 0.00 | 0.37 | 0.22 | 91 | 1005.5 |
| 20260509100312 | 54 | 197 | 5.0 | 11.0 | 0.00 | 0.37 | 0.22 | 91 | 1005.8 |
| 20260509095811 | 54 | 190 | 3.0 | 10.0 | 0.00 | 0.37 | 0.22 | 92 | 1005.9 |
| 20260509094811 | 54 | 214 | 5.0 | 10.0 | 0.00 | 0.37 | 0.22 | 92 | 1005.9 |
| 20260509093811 | 54 | 205 | 4.0 | 7.0 | 0.00 | 0.37 | 0.22 | 91 | 1005.8 |
| 20260509093311 | 54 | 202 | 4.0 | 7.0 | 0.00 | 0.37 | 0.22 | 91 | 1005.8 |
| 20260509092810 | 54 | 206 | 5.0 | 7.0 | 0.00 | 0.37 | 0.22 | 91 | 1005.9 |
| 20260509092310 | 54 | 222 | 1.0 | 7.0 | 0.00 | 0.37 | 0.22 | 91 | 1005.9 |
| 20260509091810 | 54 | 166 | 4.0 | 6.0 | 0.00 | 0.37 | 0.22 | 91 | 1005.9 |
| 20260509090810 | 54 | 225 | 0.0 | 7.0 | 0.01 | 0.37 | 0.22 | 91 | 1006.1 |
| 20260509090310 | 54 | 212 | 3.0 | 7.0 | 0.01 | 0.37 | 0.22 | 91 | 1006.2 |
| 20260509085309 | 54 | 194 | 2.0 | 9.0 | 0.02 | 0.37 | 0.22 | 90 | 1006.4 |